sensor_id;sensor_type;location;lat;lon;timestamp;P1;durP1;ratioP1;P2;durP2;ratioP2
12812;SDS011;6471;50.932;6.934;2023-03-01T00:16:09;7.40;;;5.20;;
12812;SDS011;6471;50.932;6.934;2023-03-01T00:18:42;7.50;;;5.70;;
12812;SDS011;6471;50.932;6.934;2023-03-01T00:21:09;6.97;;;4.90;;
12812;SDS011;6471;50.932;6.934;2023-03-01T00:27:25;7.47;;;5.13;;
12812;SDS011;6471;50.932;6.934;2023-03-01T00:29:52;7.37;;;4.90;;
12812;SDS011;6471;50.932;6.934;2023-03-01T00:32:18;6.20;;;4.73;;
12812;SDS011;6471;50.932;6.934;2023-03-01T00:35:14;7.13;;;4.97;;
12812;SDS011;6471;50.932;6.934;2023-03-01T00:40:44;7.43;;;4.87;;
12812;SDS011;6471;50.932;6.934;2023-03-01T00:50:05;8.73;;;5.23;;
12812;SDS011;6471;50.932;6.934;2023-03-01T00:53:23;7.40;;;4.63;;
12812;SDS011;6471;50.932;6.934;2023-03-01T01:11:34;7.00;;;4.93;;
12812;SDS011;6471;50.932;6.934;2023-03-01T01:14:04;7.37;;;5.47;;
12812;SDS011;6471;50.932;6.934;2023-03-01T01:16:30;8.67;;;5.13;;
12812;SDS011;6471;50.932;6.934;2023-03-01T01:18:56;8.97;;;5.70;;
12812;SDS011;6471;50.932;6.934;2023-03-01T01:21:23;7.27;;;4.60;;
12812;SDS011;6471;50.932;6.934;2023-03-01T01:23:49;7.73;;;4.90;;
12812;SDS011;6471;50.932;6.934;2023-03-01T01:26:19;7.50;;;5.07;;
12812;SDS011;6471;50.932;6.934;2023-03-01T01:28:46;8.07;;;5.07;;
12812;SDS011;6471;50.932;6.934;2023-03-01T01:31:21;8.33;;;5.57;;
12812;SDS011;6471;50.932;6.934;2023-03-01T01:33:50;8.13;;;5.17;;
12812;SDS011;6471;50.932;6.934;2023-03-01T01:36:17;7.93;;;5.20;;
12812;SDS011;6471;50.932;6.934;2023-03-01T01:39:03;6.73;;;5.20;;
12812;SDS011;6471;50.932;6.934;2023-03-01T01:41:29;6.57;;;4.80;;
12812;SDS011;6471;50.932;6.934;2023-03-01T01:44:13;7.80;;;5.40;;
12812;SDS011;6471;50.932;6.934;2023-03-01T01:46:53;8.10;;;5.23;;
12812;SDS011;6471;50.932;6.934;2023-03-01T01:49:36;8.97;;;5.23;;
12812;SDS011;6471;50.932;6.934;2023-03-01T01:52:13;7.90;;;5.63;;
12812;SDS011;6471;50.932;6.934;2023-03-01T01:57:07;8.60;;;5.57;;
12812;SDS011;6471;50.932;6.934;2023-03-01T01:59:36;6.80;;;4.70;;
12812;SDS011;6471;50.932;6.934;2023-03-01T02:02:03;7.60;;;5.27;;
12812;SDS011;6471;50.932;6.934;2023-03-01T02:04:30;7.50;;;5.33;;
12812;SDS011;6471;50.932;6.934;2023-03-01T02:07:13;7.13;;;4.87;;
12812;SDS011;6471;50.932;6.934;2023-03-01T02:09:41;7.00;;;5.10;;
12812;SDS011;6471;50.932;6.934;2023-03-01T02:12:07;7.20;;;5.43;;
12812;SDS011;6471;50.932;6.934;2023-03-01T02:14:34;6.63;;;4.73;;
12812;SDS011;6471;50.932;6.934;2023-03-01T02:17:00;7.10;;;4.97;;
12812;SDS011;6471;50.932;6.934;2023-03-01T02:22:16;8.70;;;5.07;;
12812;SDS011;6471;50.932;6.934;2023-03-01T02:24:49;7.00;;;4.77;;
12812;SDS011;6471;50.932;6.934;2023-03-01T02:27:18;8.10;;;4.90;;
12812;SDS011;6471;50.932;6.934;2023-03-01T02:29:46;8.80;;;5.60;;
12812;SDS011;6471;50.932;6.934;2023-03-01T02:32:13;7.30;;;5.43;;
12812;SDS011;6471;50.932;6.934;2023-03-01T02:34:40;8.47;;;5.83;;
12812;SDS011;6471;50.932;6.934;2023-03-01T02:37:13;8.03;;;5.77;;
12812;SDS011;6471;50.932;6.934;2023-03-01T02:39:40;8.13;;;5.63;;
12812;SDS011;6471;50.932;6.934;2023-03-01T02:42:09;7.80;;;5.20;;
12812;SDS011;6471;50.932;6.934;2023-03-01T02:44:36;7.73;;;5.40;;
12812;SDS011;6471;50.932;6.934;2023-03-01T02:47:03;7.30;;;5.50;;
12812;SDS011;6471;50.932;6.934;2023-03-01T02:49:31;8.13;;;5.57;;
12812;SDS011;6471;50.932;6.934;2023-03-01T02:52:16;8.27;;;5.20;;
12812;SDS011;6471;50.932;6.934;2023-03-01T02:54:54;7.20;;;5.50;;
12812;SDS011;6471;50.932;6.934;2023-03-01T02:57:23;6.47;;;5.40;;
12812;SDS011;6471;50.932;6.934;2023-03-01T02:59:54;6.73;;;4.73;;
12812;SDS011;6471;50.932;6.934;2023-03-01T03:02:21;8.87;;;5.53;;
12812;SDS011;6471;50.932;6.934;2023-03-01T03:05:01;8.00;;;5.27;;
12812;SDS011;6471;50.932;6.934;2023-03-01T03:07:27;10.70;;;5.30;;
12812;SDS011;6471;50.932;6.934;2023-03-01T03:09:53;7.50;;;5.50;;
12812;SDS011;6471;50.932;6.934;2023-03-01T03:12:19;9.53;;;5.60;;
12812;SDS011;6471;50.932;6.934;2023-03-01T03:14:46;9.60;;;5.80;;
12812;SDS011;6471;50.932;6.934;2023-03-01T03:17:12;7.70;;;4.87;;
12812;SDS011;6471;50.932;6.934;2023-03-01T03:19:38;7.87;;;5.20;;
12812;SDS011;6471;50.932;6.934;2023-03-01T03:22:04;7.73;;;5.60;;
12812;SDS011;6471;50.932;6.934;2023-03-01T03:24:30;7.37;;;5.23;;
12812;SDS011;6471;50.932;6.934;2023-03-01T03:27:02;9.80;;;6.03;;
12812;SDS011;6471;50.932;6.934;2023-03-01T03:29:29;8.70;;;5.63;;
12812;SDS011;6471;50.932;6.934;2023-03-01T03:31:55;7.83;;;4.87;;
12812;SDS011;6471;50.932;6.934;2023-03-01T03:34:21;7.00;;;5.13;;
12812;SDS011;6471;50.932;6.934;2023-03-01T03:36:47;7.10;;;4.70;;
12812;SDS011;6471;50.932;6.934;2023-03-01T03:39:13;7.50;;;5.00;;
12812;SDS011;6471;50.932;6.934;2023-03-01T03:41:39;6.67;;;4.60;;
12812;SDS011;6471;50.932;6.934;2023-03-01T03:44:05;7.03;;;4.37;;
12812;SDS011;6471;50.932;6.934;2023-03-01T03:46:31;6.83;;;4.30;;
12812;SDS011;6471;50.932;6.934;2023-03-01T03:48:58;6.43;;;4.83;;
12812;SDS011;6471;50.932;6.934;2023-03-01T03:51:30;5.57;;;4.20;;
12812;SDS011;6471;50.932;6.934;2023-03-01T03:53:56;6.47;;;4.43;;
12812;SDS011;6471;50.932;6.934;2023-03-01T03:56:22;6.33;;;4.67;;
12812;SDS011;6471;50.932;6.934;2023-03-01T03:58:52;8.73;;;5.17;;
12812;SDS011;6471;50.932;6.934;2023-03-01T04:01:18;6.63;;;5.00;;
12812;SDS011;6471;50.932;6.934;2023-03-01T04:03:44;6.77;;;5.20;;
12812;SDS011;6471;50.932;6.934;2023-03-01T04:06:12;7.83;;;5.20;;
12812;SDS011;6471;50.932;6.934;2023-03-01T04:08:38;7.73;;;5.20;;
12812;SDS011;6471;50.932;6.934;2023-03-01T04:11:05;6.57;;;4.63;;
12812;SDS011;6471;50.932;6.934;2023-03-01T04:13:57;6.20;;;4.10;;
12812;SDS011;6471;50.932;6.934;2023-03-01T04:16:25;5.80;;;4.40;;
12812;SDS011;6471;50.932;6.934;2023-03-01T04:18:51;5.87;;;4.17;;
12812;SDS011;6471;50.932;6.934;2023-03-01T04:21:18;7.30;;;4.57;;
12812;SDS011;6471;50.932;6.934;2023-03-01T04:23:45;6.23;;;4.30;;
12812;SDS011;6471;50.932;6.934;2023-03-01T04:26:11;6.97;;;5.20;;
12812;SDS011;6471;50.932;6.934;2023-03-01T04:28:39;6.10;;;4.13;;
12812;SDS011;6471;50.932;6.934;2023-03-01T04:31:09;7.73;;;5.10;;
12812;SDS011;6471;50.932;6.934;2023-03-01T04:33:39;7.73;;;4.80;;
12812;SDS011;6471;50.932;6.934;2023-03-01T04:36:05;8.43;;;5.33;;
12812;SDS011;6471;50.932;6.934;2023-03-01T04:38:35;8.70;;;5.67;;
12812;SDS011;6471;50.932;6.934;2023-03-01T04:41:02;7.17;;;5.30;;
12812;SDS011;6471;50.932;6.934;2023-03-01T04:43:28;7.87;;;5.20;;
12812;SDS011;6471;50.932;6.934;2023-03-01T04:46:09;7.73;;;5.00;;
12812;SDS011;6471;50.932;6.934;2023-03-01T04:48:37;8.27;;;5.60;;
12812;SDS011;6471;50.932;6.934;2023-03-01T04:51:03;8.30;;;5.30;;
12812;SDS011;6471;50.932;6.934;2023-03-01T04:53:30;7.43;;;5.10;;
12812;SDS011;6471;50.932;6.934;2023-03-01T04:55:57;10.13;;;6.70;;
12812;SDS011;6471;50.932;6.934;2023-03-01T04:58:24;9.00;;;6.00;;
12812;SDS011;6471;50.932;6.934;2023-03-01T05:00:51;9.67;;;6.10;;
12812;SDS011;6471;50.932;6.934;2023-03-01T05:03:17;11.97;;;6.77;;
12812;SDS011;6471;50.932;6.934;2023-03-01T05:05:44;9.93;;;7.00;;
12812;SDS011;6471;50.932;6.934;2023-03-01T05:08:10;12.87;;;7.63;;
12812;SDS011;6471;50.932;6.934;2023-03-01T05:10:42;11.47;;;7.40;;
12812;SDS011;6471;50.932;6.934;2023-03-01T05:13:08;11.03;;;7.27;;
12812;SDS011;6471;50.932;6.934;2023-03-01T05:15:38;11.77;;;7.03;;
12812;SDS011;6471;50.932;6.934;2023-03-01T05:18:04;10.43;;;6.80;;
12812;SDS011;6471;50.932;6.934;2023-03-01T05:20:36;11.33;;;6.97;;
12812;SDS011;6471;50.932;6.934;2023-03-01T05:23:02;10.17;;;6.50;;
12812;SDS011;6471;50.932;6.934;2023-03-01T05:25:30;10.73;;;6.57;;
12812;SDS011;6471;50.932;6.934;2023-03-01T05:28:04;8.00;;;5.80;;
12812;SDS011;6471;50.932;6.934;2023-03-01T05:30:31;12.33;;;7.50;;
12812;SDS011;6471;50.932;6.934;2023-03-01T05:32:58;10.10;;;6.93;;
12812;SDS011;6471;50.932;6.934;2023-03-01T05:35:24;10.20;;;6.73;;
12812;SDS011;6471;50.932;6.934;2023-03-01T05:37:50;11.07;;;7.37;;
12812;SDS011;6471;50.932;6.934;2023-03-01T05:40:18;14.00;;;7.97;;
12812;SDS011;6471;50.932;6.934;2023-03-01T05:42:48;12.27;;;7.70;;
12812;SDS011;6471;50.932;6.934;2023-03-01T05:45:15;12.33;;;7.80;;
12812;SDS011;6471;50.932;6.934;2023-03-01T05:47:42;10.13;;;7.20;;
12812;SDS011;6471;50.932;6.934;2023-03-01T05:50:11;10.60;;;6.67;;
12812;SDS011;6471;50.932;6.934;2023-03-01T05:52:44;10.83;;;7.20;;
12812;SDS011;6471;50.932;6.934;2023-03-01T05:55:10;11.33;;;7.57;;
12812;SDS011;6471;50.932;6.934;2023-03-01T05:57:36;8.97;;;6.43;;
12812;SDS011;6471;50.932;6.934;2023-03-01T06:00:15;9.20;;;6.37;;
12812;SDS011;6471;50.932;6.934;2023-03-01T06:02:48;10.17;;;6.67;;
12812;SDS011;6471;50.932;6.934;2023-03-01T06:05:17;9.03;;;6.23;;
12812;SDS011;6471;50.932;6.934;2023-03-01T06:07:43;11.13;;;6.70;;
12812;SDS011;6471;50.932;6.934;2023-03-01T06:42:09;13.27;;;7.63;;
12812;SDS011;6471;50.932;6.934;2023-03-01T06:51:27;13.60;;;7.97;;
12812;SDS011;6471;50.932;6.934;2023-03-01T06:54:20;12.37;;;7.63;;
12812;SDS011;6471;50.932;6.934;2023-03-01T06:59:46;14.20;;;8.77;;
12812;SDS011;6471;50.932;6.934;2023-03-01T07:02:16;10.97;;;7.83;;
12812;SDS011;6471;50.932;6.934;2023-03-01T07:04:50;15.17;;;8.53;;
12812;SDS011;6471;50.932;6.934;2023-03-01T07:07:46;14.50;;;8.60;;
12812;SDS011;6471;50.932;6.934;2023-03-01T07:29:11;12.43;;;8.30;;
12812;SDS011;6471;50.932;6.934;2023-03-01T07:31:37;13.57;;;8.73;;
12812;SDS011;6471;50.932;6.934;2023-03-01T07:34:03;12.33;;;8.30;;
12812;SDS011;6471;50.932;6.934;2023-03-01T07:36:29;12.63;;;7.47;;
12812;SDS011;6471;50.932;6.934;2023-03-01T07:38:55;12.27;;;8.73;;
12812;SDS011;6471;50.932;6.934;2023-03-01T07:41:21;11.57;;;8.63;;
12812;SDS011;6471;50.932;6.934;2023-03-01T07:43:47;14.47;;;8.83;;
12812;SDS011;6471;50.932;6.934;2023-03-01T07:46:13;12.60;;;8.20;;
12812;SDS011;6471;50.932;6.934;2023-03-01T07:48:39;12.20;;;8.33;;
12812;SDS011;6471;50.932;6.934;2023-03-01T07:51:06;12.60;;;8.63;;
12812;SDS011;6471;50.932;6.934;2023-03-01T07:53:32;11.67;;;7.73;;
12812;SDS011;6471;50.932;6.934;2023-03-01T07:56:02;14.40;;;8.17;;
12812;SDS011;6471;50.932;6.934;2023-03-01T07:58:28;13.30;;;8.83;;
12812;SDS011;6471;50.932;6.934;2023-03-01T08:00:54;14.97;;;9.30;;
12812;SDS011;6471;50.932;6.934;2023-03-01T08:03:20;13.70;;;9.63;;
12812;SDS011;6471;50.932;6.934;2023-03-01T08:05:46;14.37;;;9.13;;
12812;SDS011;6471;50.932;6.934;2023-03-01T08:08:12;12.57;;;8.50;;
12812;SDS011;6471;50.932;6.934;2023-03-01T08:10:38;15.47;;;8.77;;
12812;SDS011;6471;50.932;6.934;2023-03-01T08:13:05;14.63;;;9.10;;
12812;SDS011;6471;50.932;6.934;2023-03-01T08:15:31;13.83;;;8.57;;
12812;SDS011;6471;50.932;6.934;2023-03-01T08:17:57;14.77;;;9.00;;
12812;SDS011;6471;50.932;6.934;2023-03-01T08:20:23;13.93;;;8.90;;
12812;SDS011;6471;50.932;6.934;2023-03-01T08:22:49;16.47;;;9.37;;
12812;SDS011;6471;50.932;6.934;2023-03-01T08:25:15;14.50;;;8.70;;
12812;SDS011;6471;50.932;6.934;2023-03-01T08:27:41;13.53;;;8.20;;
12812;SDS011;6471;50.932;6.934;2023-03-01T08:30:07;13.53;;;9.60;;
12812;SDS011;6471;50.932;6.934;2023-03-01T08:32:37;13.63;;;9.43;;
12812;SDS011;6471;50.932;6.934;2023-03-01T08:35:03;13.70;;;8.63;;
12812;SDS011;6471;50.932;6.934;2023-03-01T08:37:30;10.17;;;8.00;;
12812;SDS011;6471;50.932;6.934;2023-03-01T08:39:58;14.80;;;9.23;;
12812;SDS011;6471;50.932;6.934;2023-03-01T08:42:24;12.53;;;9.23;;
12812;SDS011;6471;50.932;6.934;2023-03-01T08:44:50;15.77;;;9.33;;
12812;SDS011;6471;50.932;6.934;2023-03-01T08:47:16;14.07;;;9.03;;
12812;SDS011;6471;50.932;6.934;2023-03-01T08:49:43;11.93;;;8.83;;
12812;SDS011;6471;50.932;6.934;2023-03-01T08:52:09;13.30;;;8.57;;
12812;SDS011;6471;50.932;6.934;2023-03-01T08:54:35;12.90;;;8.27;;
12812;SDS011;6471;50.932;6.934;2023-03-01T08:57:01;13.30;;;8.87;;
12812;SDS011;6471;50.932;6.934;2023-03-01T08:59:28;13.33;;;8.87;;
12812;SDS011;6471;50.932;6.934;2023-03-01T09:01:55;15.03;;;9.70;;
12812;SDS011;6471;50.932;6.934;2023-03-01T09:04:21;13.20;;;8.47;;
12812;SDS011;6471;50.932;6.934;2023-03-01T09:06:47;11.90;;;7.83;;
12812;SDS011;6471;50.932;6.934;2023-03-01T09:09:14;14.13;;;9.23;;
12812;SDS011;6471;50.932;6.934;2023-03-01T09:11:41;13.17;;;8.67;;
12812;SDS011;6471;50.932;6.934;2023-03-01T09:14:08;12.13;;;8.43;;
12812;SDS011;6471;50.932;6.934;2023-03-01T09:16:34;12.00;;;8.50;;
12812;SDS011;6471;50.932;6.934;2023-03-01T09:19:01;14.77;;;8.70;;
12812;SDS011;6471;50.932;6.934;2023-03-01T09:21:27;13.37;;;8.20;;
12812;SDS011;6471;50.932;6.934;2023-03-01T09:23:55;14.50;;;7.93;;
12812;SDS011;6471;50.932;6.934;2023-03-01T09:26:21;12.30;;;8.17;;
12812;SDS011;6471;50.932;6.934;2023-03-01T09:28:52;13.27;;;8.77;;
12812;SDS011;6471;50.932;6.934;2023-03-01T09:31:19;10.20;;;7.57;;
12812;SDS011;6471;50.932;6.934;2023-03-01T09:33:46;13.43;;;8.20;;
12812;SDS011;6471;50.932;6.934;2023-03-01T09:36:17;13.27;;;8.43;;
12812;SDS011;6471;50.932;6.934;2023-03-01T09:38:44;13.60;;;8.03;;
12812;SDS011;6471;50.932;6.934;2023-03-01T09:43:44;16.87;;;9.37;;
12812;SDS011;6471;50.932;6.934;2023-03-01T09:46:12;12.07;;;8.40;;
12812;SDS011;6471;50.932;6.934;2023-03-01T09:48:46;13.17;;;8.07;;
12812;SDS011;6471;50.932;6.934;2023-03-01T09:51:17;11.43;;;7.97;;
12812;SDS011;6471;50.932;6.934;2023-03-01T09:53:44;11.27;;;7.90;;
12812;SDS011;6471;50.932;6.934;2023-03-01T10:01:35;11.60;;;7.83;;
12812;SDS011;6471;50.932;6.934;2023-03-01T10:09:28;11.40;;;7.77;;
12812;SDS011;6471;50.932;6.934;2023-03-01T10:11:56;12.70;;;7.83;;
12812;SDS011;6471;50.932;6.934;2023-03-01T10:14:38;12.70;;;8.17;;
12812;SDS011;6471;50.932;6.934;2023-03-01T10:17:08;11.93;;;7.57;;
12812;SDS011;6471;50.932;6.934;2023-03-01T10:19:40;11.37;;;7.83;;
12812;SDS011;6471;50.932;6.934;2023-03-01T10:22:20;10.83;;;7.90;;
12812;SDS011;6471;50.932;6.934;2023-03-01T10:24:46;12.43;;;8.23;;
12812;SDS011;6471;50.932;6.934;2023-03-01T10:32:24;12.03;;;7.63;;
12812;SDS011;6471;50.932;6.934;2023-03-01T10:34:50;11.53;;;8.33;;
12812;SDS011;6471;50.932;6.934;2023-03-01T10:37:17;11.30;;;7.97;;
12812;SDS011;6471;50.932;6.934;2023-03-01T10:39:55;11.67;;;7.73;;
12812;SDS011;6471;50.932;6.934;2023-03-01T10:42:35;12.50;;;8.27;;
12812;SDS011;6471;50.932;6.934;2023-03-01T10:47:47;12.60;;;8.27;;
12812;SDS011;6471;50.932;6.934;2023-03-01T10:50:28;12.23;;;8.13;;
12812;SDS011;6471;50.932;6.934;2023-03-01T10:52:58;11.27;;;7.90;;
12812;SDS011;6471;50.932;6.934;2023-03-01T10:57:51;11.17;;;7.80;;
12812;SDS011;6471;50.932;6.934;2023-03-01T11:00:31;13.27;;;7.87;;
12812;SDS011;6471;50.932;6.934;2023-03-01T11:05:24;10.00;;;7.00;;
12812;SDS011;6471;50.932;6.934;2023-03-01T11:10:18;10.60;;;7.27;;
12812;SDS011;6471;50.932;6.934;2023-03-01T11:12:44;11.13;;;7.27;;
12812;SDS011;6471;50.932;6.934;2023-03-01T11:15:24;11.07;;;7.07;;
12812;SDS011;6471;50.932;6.934;2023-03-01T11:17:51;10.43;;;6.97;;
12812;SDS011;6471;50.932;6.934;2023-03-01T11:20:27;11.20;;;8.00;;
12812;SDS011;6471;50.932;6.934;2023-03-01T11:22:56;12.80;;;9.00;;
12812;SDS011;6471;50.932;6.934;2023-03-01T11:25:25;11.67;;;8.23;;
12812;SDS011;6471;50.932;6.934;2023-03-01T11:27:52;9.90;;;7.40;;
12812;SDS011;6471;50.932;6.934;2023-03-01T11:30:24;9.70;;;6.90;;
12812;SDS011;6471;50.932;6.934;2023-03-01T11:33:13;10.27;;;7.00;;
12812;SDS011;6471;50.932;6.934;2023-03-01T11:35:45;9.73;;;7.47;;
12812;SDS011;6471;50.932;6.934;2023-03-01T11:40:57;12.10;;;8.47;;
12812;SDS011;6471;50.932;6.934;2023-03-01T11:51:05;13.03;;;8.17;;
12812;SDS011;6471;50.932;6.934;2023-03-01T11:53:38;10.10;;;7.07;;
12812;SDS011;6471;50.932;6.934;2023-03-01T11:56:24;10.53;;;7.53;;
12812;SDS011;6471;50.932;6.934;2023-03-01T11:59:02;13.20;;;7.57;;
12812;SDS011;6471;50.932;6.934;2023-03-01T12:17:04;10.77;;;7.20;;
12812;SDS011;6471;50.932;6.934;2023-03-01T12:19:37;10.10;;;7.33;;
12812;SDS011;6471;50.932;6.934;2023-03-01T12:32:57;10.50;;;7.77;;
12812;SDS011;6471;50.932;6.934;2023-03-01T12:35:40;12.37;;;7.87;;
12812;SDS011;6471;50.932;6.934;2023-03-01T12:38:22;12.17;;;7.13;;
12812;SDS011;6471;50.932;6.934;2023-03-01T12:46:10;12.60;;;8.10;;
12812;SDS011;6471;50.932;6.934;2023-03-01T12:51:17;12.90;;;8.53;;
12812;SDS011;6471;50.932;6.934;2023-03-01T12:53:46;9.60;;;7.50;;
12812;SDS011;6471;50.932;6.934;2023-03-01T12:56:14;12.23;;;8.27;;
12812;SDS011;6471;50.932;6.934;2023-03-01T12:58:45;10.63;;;7.20;;
12812;SDS011;6471;50.932;6.934;2023-03-01T13:01:18;10.13;;;7.23;;
12812;SDS011;6471;50.932;6.934;2023-03-01T13:09:03;11.17;;;7.70;;
12812;SDS011;6471;50.932;6.934;2023-03-01T13:11:31;10.20;;;6.87;;
12812;SDS011;6471;50.932;6.934;2023-03-01T13:16:44;9.67;;;7.17;;
12812;SDS011;6471;50.932;6.934;2023-03-01T13:21:40;10.23;;;7.03;;
12812;SDS011;6471;50.932;6.934;2023-03-01T13:24:23;11.90;;;7.43;;
12812;SDS011;6471;50.932;6.934;2023-03-01T13:27:32;10.33;;;7.53;;
12812;SDS011;6471;50.932;6.934;2023-03-01T13:29:46;9.77;;;7.40;;
12812;SDS011;6471;50.932;6.934;2023-03-01T13:37:39;9.13;;;6.60;;
12812;SDS011;6471;50.932;6.934;2023-03-01T13:42:44;10.00;;;7.00;;
12812;SDS011;6471;50.932;6.934;2023-03-01T13:45:19;9.87;;;7.13;;
12812;SDS011;6471;50.932;6.934;2023-03-01T13:47:47;11.63;;;7.77;;
12812;SDS011;6471;50.932;6.934;2023-03-01T13:50:23;10.93;;;7.67;;
12812;SDS011;6471;50.932;6.934;2023-03-01T13:52:59;8.23;;;6.10;;
12812;SDS011;6471;50.932;6.934;2023-03-01T13:55:27;10.73;;;6.93;;
12812;SDS011;6471;50.932;6.934;2023-03-01T13:57:57;11.20;;;7.50;;
12812;SDS011;6471;50.932;6.934;2023-03-01T14:00:27;9.87;;;6.80;;
12812;SDS011;6471;50.932;6.934;2023-03-01T14:03:04;8.77;;;6.97;;
12812;SDS011;6471;50.932;6.934;2023-03-01T14:05:32;8.83;;;6.53;;
12812;SDS011;6471;50.932;6.934;2023-03-01T14:07:58;9.97;;;7.03;;
12812;SDS011;6471;50.932;6.934;2023-03-01T14:10:25;11.17;;;7.20;;
12812;SDS011;6471;50.932;6.934;2023-03-01T14:13:03;8.80;;;6.33;;
12812;SDS011;6471;50.932;6.934;2023-03-01T14:15:33;9.90;;;6.77;;
12812;SDS011;6471;50.932;6.934;2023-03-01T14:18:18;8.73;;;5.93;;
12812;SDS011;6471;50.932;6.934;2023-03-01T14:20:47;9.43;;;6.30;;
12812;SDS011;6471;50.932;6.934;2023-03-01T14:23:21;11.00;;;6.67;;
12812;SDS011;6471;50.932;6.934;2023-03-01T14:25:48;8.77;;;6.67;;
12812;SDS011;6471;50.932;6.934;2023-03-01T14:30:48;10.07;;;6.17;;
12812;SDS011;6471;50.932;6.934;2023-03-01T14:33:25;11.20;;;6.30;;
12812;SDS011;6471;50.932;6.934;2023-03-01T14:35:55;9.03;;;5.80;;
12812;SDS011;6471;50.932;6.934;2023-03-01T14:38:23;9.10;;;5.93;;
12812;SDS011;6471;50.932;6.934;2023-03-01T14:40:54;8.20;;;6.20;;
12812;SDS011;6471;50.932;6.934;2023-03-01T14:43:22;9.63;;;6.20;;
12812;SDS011;6471;50.932;6.934;2023-03-01T14:45:50;10.30;;;6.70;;
12812;SDS011;6471;50.932;6.934;2023-03-01T14:48:35;8.50;;;6.43;;
12812;SDS011;6471;50.932;6.934;2023-03-01T14:51:01;10.43;;;6.77;;
12812;SDS011;6471;50.932;6.934;2023-03-01T14:53:30;9.93;;;6.77;;
12812;SDS011;6471;50.932;6.934;2023-03-01T14:55:59;10.27;;;7.40;;
12812;SDS011;6471;50.932;6.934;2023-03-01T14:58:28;11.63;;;7.47;;
12812;SDS011;6471;50.932;6.934;2023-03-01T15:00:58;9.50;;;6.90;;
12812;SDS011;6471;50.932;6.934;2023-03-01T15:05:50;11.53;;;7.57;;
12812;SDS011;6471;50.932;6.934;2023-03-01T15:08:19;10.27;;;7.03;;
12812;SDS011;6471;50.932;6.934;2023-03-01T15:13:51;11.87;;;7.20;;
12812;SDS011;6471;50.932;6.934;2023-03-01T15:16:19;10.13;;;6.97;;
12812;SDS011;6471;50.932;6.934;2023-03-01T15:18:57;11.07;;;6.63;;
12812;SDS011;6471;50.932;6.934;2023-03-01T15:21:26;8.63;;;6.33;;
12812;SDS011;6471;50.932;6.934;2023-03-01T15:26:40;10.53;;;7.10;;
12812;SDS011;6471;50.932;6.934;2023-03-01T15:29:10;9.40;;;6.47;;
12812;SDS011;6471;50.932;6.934;2023-03-01T15:31:42;9.00;;;6.10;;
12812;SDS011;6471;50.932;6.934;2023-03-01T15:34:09;10.70;;;6.20;;
12812;SDS011;6471;50.932;6.934;2023-03-01T15:36:38;12.77;;;7.13;;
12812;SDS011;6471;50.932;6.934;2023-03-01T15:39:05;12.17;;;6.60;;
12812;SDS011;6471;50.932;6.934;2023-03-01T15:41:45;11.03;;;6.50;;
12812;SDS011;6471;50.932;6.934;2023-03-01T15:47:22;9.40;;;6.60;;
12812;SDS011;6471;50.932;6.934;2023-03-01T15:49:50;9.60;;;6.67;;
12812;SDS011;6471;50.932;6.934;2023-03-01T15:52:25;10.73;;;6.93;;
12812;SDS011;6471;50.932;6.934;2023-03-01T15:55:01;11.00;;;7.20;;
12812;SDS011;6471;50.932;6.934;2023-03-01T15:57:28;11.17;;;6.80;;
12812;SDS011;6471;50.932;6.934;2023-03-01T15:59:54;9.43;;;5.97;;
12812;SDS011;6471;50.932;6.934;2023-03-01T16:02:21;10.20;;;6.97;;
12812;SDS011;6471;50.932;6.934;2023-03-01T16:04:48;9.33;;;6.20;;
12812;SDS011;6471;50.932;6.934;2023-03-01T16:07:14;8.93;;;6.70;;
12812;SDS011;6471;50.932;6.934;2023-03-01T16:09:40;9.23;;;6.20;;
12812;SDS011;6471;50.932;6.934;2023-03-01T16:12:08;10.83;;;5.60;;
12812;SDS011;6471;50.932;6.934;2023-03-01T16:14:34;9.07;;;6.40;;
12812;SDS011;6471;50.932;6.934;2023-03-01T16:17:00;7.77;;;5.73;;
12812;SDS011;6471;50.932;6.934;2023-03-01T16:19:27;10.60;;;5.63;;
12812;SDS011;6471;50.932;6.934;2023-03-01T16:21:53;13.30;;;6.50;;
12812;SDS011;6471;50.932;6.934;2023-03-01T16:24:19;10.23;;;6.10;;
12812;SDS011;6471;50.932;6.934;2023-03-01T16:26:48;11.50;;;6.43;;
12812;SDS011;6471;50.932;6.934;2023-03-01T16:29:14;10.80;;;6.63;;
12812;SDS011;6471;50.932;6.934;2023-03-01T16:31:41;8.83;;;6.23;;
12812;SDS011;6471;50.932;6.934;2023-03-01T16:34:07;8.27;;;5.63;;
12812;SDS011;6471;50.932;6.934;2023-03-01T16:36:33;10.17;;;6.20;;
12812;SDS011;6471;50.932;6.934;2023-03-01T16:39:02;8.57;;;5.87;;
12812;SDS011;6471;50.932;6.934;2023-03-01T16:41:29;10.70;;;6.60;;
12812;SDS011;6471;50.932;6.934;2023-03-01T16:43:55;10.20;;;6.10;;
12812;SDS011;6471;50.932;6.934;2023-03-01T16:46:23;8.37;;;5.70;;
12812;SDS011;6471;50.932;6.934;2023-03-01T16:48:49;9.70;;;6.30;;
12812;SDS011;6471;50.932;6.934;2023-03-01T16:51:18;8.70;;;5.67;;
12812;SDS011;6471;50.932;6.934;2023-03-01T16:53:45;12.20;;;6.60;;
12812;SDS011;6471;50.932;6.934;2023-03-01T16:56:11;8.70;;;6.40;;
12812;SDS011;6471;50.932;6.934;2023-03-01T16:58:38;9.93;;;5.80;;
12812;SDS011;6471;50.932;6.934;2023-03-01T17:01:09;9.40;;;6.33;;
12812;SDS011;6471;50.932;6.934;2023-03-01T17:03:39;9.87;;;5.90;;
12812;SDS011;6471;50.932;6.934;2023-03-01T17:06:06;9.07;;;5.90;;
12812;SDS011;6471;50.932;6.934;2023-03-01T17:08:33;9.23;;;6.27;;
12812;SDS011;6471;50.932;6.934;2023-03-01T17:11:03;9.50;;;5.80;;
12812;SDS011;6471;50.932;6.934;2023-03-01T17:13:33;7.20;;;5.40;;
12812;SDS011;6471;50.932;6.934;2023-03-01T17:16:00;10.10;;;5.83;;
12812;SDS011;6471;50.932;6.934;2023-03-01T17:18:27;8.77;;;5.83;;
12812;SDS011;6471;50.932;6.934;2023-03-01T17:20:53;9.00;;;6.03;;
12812;SDS011;6471;50.932;6.934;2023-03-01T17:23:20;10.27;;;6.70;;
12812;SDS011;6471;50.932;6.934;2023-03-01T17:25:46;9.50;;;5.90;;
12812;SDS011;6471;50.932;6.934;2023-03-01T17:28:12;10.03;;;6.57;;
12812;SDS011;6471;50.932;6.934;2023-03-01T17:30:54;10.47;;;6.17;;
12812;SDS011;6471;50.932;6.934;2023-03-01T17:33:21;9.10;;;5.90;;
12812;SDS011;6471;50.932;6.934;2023-03-01T17:35:47;11.47;;;6.47;;
12812;SDS011;6471;50.932;6.934;2023-03-01T17:38:13;10.27;;;6.50;;
12812;SDS011;6471;50.932;6.934;2023-03-01T17:40:40;11.47;;;6.00;;
12812;SDS011;6471;50.932;6.934;2023-03-01T17:43:07;9.80;;;6.37;;
12812;SDS011;6471;50.932;6.934;2023-03-01T17:45:36;8.93;;;5.80;;
12812;SDS011;6471;50.932;6.934;2023-03-01T17:48:02;9.47;;;6.30;;
12812;SDS011;6471;50.932;6.934;2023-03-01T17:50:36;9.43;;;6.03;;
12812;SDS011;6471;50.932;6.934;2023-03-01T17:53:12;9.07;;;5.53;;
12812;SDS011;6471;50.932;6.934;2023-03-01T17:55:38;8.70;;;5.60;;
12812;SDS011;6471;50.932;6.934;2023-03-01T17:58:05;9.77;;;6.40;;
12812;SDS011;6471;50.932;6.934;2023-03-01T18:00:32;8.87;;;5.90;;
12812;SDS011;6471;50.932;6.934;2023-03-01T18:02:58;10.37;;;6.70;;
12812;SDS011;6471;50.932;6.934;2023-03-01T18:05:25;9.83;;;6.00;;
12812;SDS011;6471;50.932;6.934;2023-03-01T18:07:51;9.63;;;6.50;;
12812;SDS011;6471;50.932;6.934;2023-03-01T18:10:18;9.27;;;6.13;;
12812;SDS011;6471;50.932;6.934;2023-03-01T18:12:44;11.40;;;6.70;;
12812;SDS011;6471;50.932;6.934;2023-03-01T18:15:10;10.20;;;6.67;;
12812;SDS011;6471;50.932;6.934;2023-03-01T18:17:36;9.73;;;6.50;;
12812;SDS011;6471;50.932;6.934;2023-03-01T18:20:03;12.23;;;6.63;;
12812;SDS011;6471;50.932;6.934;2023-03-01T18:22:30;8.77;;;5.53;;
12812;SDS011;6471;50.932;6.934;2023-03-01T18:24:56;9.33;;;5.70;;
12812;SDS011;6471;50.932;6.934;2023-03-01T18:27:22;10.30;;;6.67;;
12812;SDS011;6471;50.932;6.934;2023-03-01T18:29:48;12.23;;;6.87;;
12812;SDS011;6471;50.932;6.934;2023-03-01T18:32:15;12.33;;;6.80;;
12812;SDS011;6471;50.932;6.934;2023-03-01T18:34:41;10.53;;;6.20;;
12812;SDS011;6471;50.932;6.934;2023-03-01T18:37:07;12.00;;;6.63;;
12812;SDS011;6471;50.932;6.934;2023-03-01T18:39:33;11.10;;;7.07;;
12812;SDS011;6471;50.932;6.934;2023-03-01T18:41:59;10.33;;;6.63;;